Time;durP1;ratioP1;P1;durP2;ratioP2;P2;SDS_P1;SDS_P2;PMS_P1;PMS_P2;Temp;Humidity;BMP_temperature;BMP_pressure;BME280_temperature;BME280_humidity;BME280_pressure;Samples;Min_cycle;Max_cycle;Signal;HPM_P1;HPM_P2
2024/01/05 06:44:24;;;;;;;5.25;1.40;;;;;;;;;;10511477;28;20468;-85
2024/01/05 06:49:25;;;;;;;4.95;1.42;;;;;;;;;;10540676;28;20041;-83
2024/01/05 08:23:18;;;;;;;3.40;1.35;;;;;;;;;;10516275;28;20063;-85
2024/01/05 08:28:42;;;;;;;;;;;;;;;;;;10439771;28;20038;-85
2024/01/05 09:19:41;;;;;;;3.70;1.15;;;;;;;;;;10387485;28;20125;-84
2024/01/05 09:52:49;;;;;;;;;;;;;;;;;;10518588;28;20032;-85
2024/01/05 10:03:56;;;;;;;1.40;0.50;;;;;;;;;;10508655;28;20107;-83
2024/01/05 10:32:23;;;;;;;1.38;0.68;;;;;;;;;;10343138;28;20034;-84
2024/01/05 10:49:15;;;;;;;1.45;0.65;;;;;;;;;;10511863;28;20033;-83
2024/01/05 11:57:29;;;;;;;2.08;0.80;;;;;;;;;;10516882;28;20033;-85
2024/01/05 12:03:13;;;;;;;1.67;0.90;;;;;;;;;;10507313;28;20056;-85
2024/01/05 12:14:15;;;;;;;2.22;0.90;;;;;;;;;;10539412;28;20036;-85
2024/01/05 12:25:48;;;;;;;2.03;0.80;;;;;;;;;;10524614;28;20048;-84
2024/01/05 12:37:23;;;;;;;2.72;1.00;;;;;;;;;;10432606;28;20536;-84
2024/01/05 12:43:02;;;;;;;1.65;0.80;;;;;;;;;;10439309;28;20033;-84
2024/01/05 12:48:35;;;;;;;3.13;1.10;;;;;;;;;;10416113;28;20029;-84
2024/01/05 12:59:22;;;;;;;1.50;0.90;;;;;;;;;;10596875;22;20040;-81
2024/01/05 13:04:30;;;;;;;1.38;0.70;;;;;;;;;;10543253;28;20040;-81
2024/01/05 13:09:33;;;;;;;1.92;0.90;;;;;;;;;;10583197;28;20044;-82
2024/01/05 13:14:34;;;;;;;1.60;0.70;;;;;;;;;;10585666;28;20084;-82
2024/01/05 13:19:36;;;;;;;2.38;0.90;;;;;;;;;;10583477;28;20465;-82
2024/01/05 13:24:37;;;;;;;1.30;0.65;;;;;;;;;;10585343;28;20038;-82
2024/01/05 13:29:39;;;;;;;1.85;0.80;;;;;;;;;;10584518;28;20447;-83
2024/01/05 13:34:40;;;;;;;2.60;1.13;;;;;;;;;;10608755;28;20028;-80
2024/01/05 13:39:42;;;;;;;1.30;0.60;;;;;;;;;;10586913;28;20031;-83
2024/01/05 13:44:43;;;;;;;1.50;0.63;;;;;;;;;;10588527;28;20036;-81
2024/01/05 13:49:44;;;;;;;3.00;1.30;;;;;;;;;;10601898;28;20032;-82
2024/01/05 13:54:46;;;;;;;1.77;0.60;;;;;;;;;;10598703;28;20047;-82
2024/01/05 13:59:48;;;;;;;1.98;0.82;;;;;;;;;;10573793;28;20047;-81
2024/01/05 14:05:01;;;;;;;1.77;0.68;;;;;;;;;;10574442;28;20053;-83
2024/01/05 14:15:59;;;;;;;1.67;0.70;;;;;;;;;;10592916;28;20103;-84
2024/01/05 14:21:02;;;;;;;2.13;0.98;;;;;;;;;;10579662;28;20506;-83
2024/01/05 14:26:08;;;;;;;1.80;0.80;;;;;;;;;;10586716;28;20035;-82
2024/01/05 14:31:10;;;;;;;2.17;0.60;;;;;;;;;;10586514;28;20035;-83
2024/01/05 14:36:12;;;;;;;;;;;;;;;;;;10586915;28;20028;-83
2024/01/05 14:41:14;;;;;;;5.00;1.90;;;;;;;;;;10604080;28;19903;-86
2024/01/05 14:46:15;;;;;;;3.17;1.20;;;;;;;;;;10583616;28;20403;-83
2024/01/05 14:51:17;;;;;;;1.65;0.68;;;;;;;;;;10611084;28;20051;-83
2024/01/05 14:56:18;;;;;;;6.55;2.03;;;;;;;;;;10591873;28;20043;-82
2024/01/05 15:01:19;;;;;;;2.45;1.00;;;;;;;;;;10607034;28;20126;-82
2024/01/05 15:06:21;;;;;;;;;;;;;;;;;;10603559;28;20034;-82
2024/01/05 15:11:23;;;;;;;2.65;1.25;;;;;;;;;;10632790;27;19912;-82
2024/01/05 15:16:24;;;;;;;3.83;1.90;;;;;;;;;;10598097;28;20043;-82
2024/01/05 15:21:25;;;;;;;2.13;0.90;;;;;;;;;;10596567;28;20032;-82
2024/01/05 15:26:29;;;;;;;2.35;1.02;;;;;;;;;;10603427;28;20031;-82
2024/01/05 15:31:32;;;;;;;2.97;1.00;;;;;;;;;;10599624;28;20061;-82
2024/01/05 15:36:33;;;;;;;3.33;1.20;;;;;;;;;;10593481;28;20073;-83
2024/01/05 15:41:34;;;;;;;4.78;1.23;;;;;;;;;;10591346;28;20122;-83
2024/01/05 15:46:51;;;;;;;1.42;0.65;;;;;;;;;;10616454;28;20048;-83
2024/01/05 15:51:58;;;;;;;1.83;0.90;;;;;;;;;;10594310;28;20109;-84
2024/01/05 15:57:15;;;;;;;3.30;0.80;;;;;;;;;;10593639;28;20086;-84
2024/01/05 16:02:16;;;;;;;4.63;1.92;;;;;;;;;;10616954;27;20031;-84
2024/01/05 16:07:18;;;;;;;2.72;1.15;;;;;;;;;;10612384;28;20103;-83
2024/01/05 16:12:21;;;;;;;3.42;1.73;;;;;;;;;;10629897;28;20032;-82
2024/01/05 16:17:25;;;;;;;4.70;1.27;;;;;;;;;;10601689;28;20138;-83
2024/01/05 16:22:31;;;;;;;4.70;1.40;;;;;;;;;;10613940;28;20063;-84
2024/01/05 16:27:53;;;;;;;3.58;2.00;;;;;;;;;;10598826;28;20042;-83
2024/01/05 16:32:54;;;;;;;4.97;1.67;;;;;;;;;;10594006;28;20066;-82
2024/01/05 16:37:55;;;;;;;3.78;1.35;;;;;;;;;;10595272;28;20028;-83
2024/01/05 16:42:56;;;;;;;2.70;0.90;;;;;;;;;;10592900;28;20035;-83
2024/01/05 16:47:58;;;;;;;2.58;1.30;;;;;;;;;;10593556;28;20031;-82
2024/01/05 16:53:00;;;;;;;4.32;1.30;;;;;;;;;;10606407;28;20045;-83
2024/01/05 16:58:01;;;;;;;2.05;1.00;;;;;;;;;;10589241;28;20067;-83
2024/01/05 17:03:03;;;;;;;1.92;1.08;;;;;;;;;;10606871;28;20036;-84
2024/01/05 17:08:04;;;;;;;3.42;1.30;;;;;;;;;;10606421;28;20102;-82
2024/01/05 17:13:05;;;;;;;;;;;;;;;;;;10581206;28;20032;-83
2024/01/05 17:18:06;;;;;;;2.53;0.90;;;;;;;;;;10598862;28;19903;-87
2024/01/05 17:23:08;;;;;;;3.00;1.30;;;;;;;;;;10578194;28;20032;-87
2024/01/05 17:28:10;;;;;;;2.25;1.27;;;;;;;;;;10581103;28;20062;-84
2024/01/05 17:33:11;;;;;;;3.97;1.95;;;;;;;;;;10574440;28;20042;-83
2024/01/05 17:38:12;;;;;;;4.43;1.75;;;;;;;;;;10574542;28;20028;-84
2024/01/05 17:43:13;;;;;;;3.03;1.35;;;;;;;;;;10574953;28;20055;-84
2024/01/05 17:48:14;;;;;;;2.47;1.70;;;;;;;;;;10575098;28;20043;-84
2024/01/05 17:53:15;;;;;;;4.03;2.65;;;;;;;;;;10572799;28;20448;-83
2024/01/05 17:58:17;;;;;;;3.88;2.30;;;;;;;;;;10574242;28;20110;-84
2024/01/05 18:03:19;;;;;;;4.60;2.22;;;;;;;;;;10575173;28;20043;-83
2024/01/05 18:08:26;;;;;;;3.92;2.22;;;;;;;;;;10573103;28;20041;-83
2024/01/05 18:13:28;;;;;;;4.10;2.25;;;;;;;;;;10574060;28;20036;-84
2024/01/05 18:18:29;;;;;;;3.58;1.75;;;;;;;;;;10592377;28;20110;-83
2024/01/05 18:23:30;;;;;;;6.50;2.70;;;;;;;;;;10591818;28;20103;-83
2024/01/05 18:28:31;;;;;;;3.88;2.20;;;;;;;;;;10573577;28;20088;-83
2024/01/05 18:33:35;;;;;;;2.60;1.55;;;;;;;;;;10574351;28;20196;-83
2024/01/05 18:38:46;;;;;;;3.92;2.40;;;;;;;;;;10598002;28;20035;-83
2024/01/05 18:43:53;;;;;;;5.20;2.53;;;;;;;;;;10574402;28;20042;-83
2024/01/05 18:48:54;;;;;;;2.88;1.55;;;;;;;;;;10573751;28;20172;-83
2024/01/05 18:54:27;;;;;;;4.07;2.22;;;;;;;;;;10585061;28;20669;-83
2024/01/05 19:10:32;;;;;;;3.65;2.55;;;;;;;;;;10587336;28;19924;-86
2024/01/05 19:16:06;;;;;;;4.35;3.00;;;;;;;;;;10553050;28;20036;-86
2024/01/05 19:21:23;;;;;;;3.25;1.92;;;;;;;;;;10574301;28;20065;-87
2024/01/05 19:26:44;;;;;;;3.50;2.70;;;;;;;;;;10583355;28;20070;-87
2024/01/05 19:31:46;;;;;;;;;;;;;;;;;;10572245;28;20483;-86
2024/01/05 19:36:47;;;;;;;3.47;2.20;;;;;;;;;;10571126;28;19903;-86
2024/01/05 19:41:54;;;;;;;2.20;1.58;;;;;;;;;;10588455;27;20036;-87
2024/01/05 19:46:58;;;;;;;2.55;1.45;;;;;;;;;;10595239;28;20031;-87
2024/01/05 19:52:02;;;;;;;3.63;2.72;;;;;;;;;;10585684;28;20112;-88
2024/01/05 19:57:06;;;;;;;4.00;2.90;;;;;;;;;;10582639;28;20115;-87
2024/01/05 20:02:09;;;;;;;1.85;1.40;;;;;;;;;;10564624;28;20463;-87
2024/01/05 20:07:16;;;;;;;5.22;3.45;;;;;;;;;;10601701;28;20077;-87
